Belle Haven, Connecticut
Current Conditions -  °F | °C
As of 8:56 PM on Wednesday 17 Dec 2014 (Local Time) from KHPN Reporting Station
Broken Clouds Broken Clouds  
Wind Chill: 36°   Ceiling: 3300
Heat Index: 41°   Visibility: 10mi
Dew Point: 31°   Wind: 8mph
Humidity: 67%   Direction: 310°NW
Pressure: 29.86"   Gusts: NA
Location:  41.0502°N, 73.6235°W
Report Text: KHPN 180156Z 31007KT 10SM BKN033 05/M01 A2986 RMK AO2 SLP115 T00501006
Loading
Personal Weather Stations






























Interactive Weather Map New forecast layout! Learn more

10-Day Weather Forecast

Advertisements
Track Severe Weather on mobile